sensor_id;sensor_type;location;lat;lon;timestamp;P1;P2;P0
62054;PMS5003;48653;51.742;-1.256;2023-06-19T00:01:51;20;19;
62054;PMS5003;48653;51.742;-1.256;2023-06-19T00:04:16;19;17;
62054;PMS5003;48653;51.742;-1.256;2023-06-19T00:06:41;18;18;
62054;PMS5003;48653;51.742;-1.256;2023-06-19T00:09:07;15;15;
62054;PMS5003;48653;51.742;-1.256;2023-06-19T00:11:32;19;17;
62054;PMS5003;48653;51.742;-1.256;2023-06-19T00:13:58;21;19;
62054;PMS5003;48653;51.742;-1.256;2023-06-19T00:16:24;19;16;
62054;PMS5003;48653;51.742;-1.256;2023-06-19T00:18:49;18;16;
62054;PMS5003;48653;51.742;-1.256;2023-06-19T00:21:14;19;17;
62054;PMS5003;48653;51.742;-1.256;2023-06-19T00:23:39;15;15;
62054;PMS5003;48653;51.742;-1.256;2023-06-19T00:26:05;17;15;
62054;PMS5003;48653;51.742;-1.256;2023-06-19T00:28:30;17;15;
62054;PMS5003;48653;51.742;-1.256;2023-06-19T00:30:56;17;17;
62054;PMS5003;48653;51.742;-1.256;2023-06-19T00:33:22;24;21;
62054;PMS5003;48653;51.742;-1.256;2023-06-19T00:35:47;16;14;
62054;PMS5003;48653;51.742;-1.256;2023-06-19T00:38:13;19;17;
62054;PMS5003;48653;51.742;-1.256;2023-06-19T00:40:38;22;19;
62054;PMS5003;48653;51.742;-1.256;2023-06-19T00:43:03;18;18;
62054;PMS5003;48653;51.742;-1.256;2023-06-19T00:45:29;14;14;
62054;PMS5003;48653;51.742;-1.256;2023-06-19T00:47:55;16;14;
62054;PMS5003;48653;51.742;-1.256;2023-06-19T00:50:20;19;16;
62054;PMS5003;48653;51.742;-1.256;2023-06-19T00:52:45;21;18;
62054;PMS5003;48653;51.742;-1.256;2023-06-19T00:55:10;21;20;
62054;PMS5003;48653;51.742;-1.256;2023-06-19T00:57:36;23;19;
62054;PMS5003;48653;51.742;-1.256;2023-06-19T01:00:01;21;18;
62054;PMS5003;48653;51.742;-1.256;2023-06-19T01:02:27;24;17;
62054;PMS5003;48653;51.742;-1.256;2023-06-19T01:04:52;20;17;
62054;PMS5003;48653;51.742;-1.256;2023-06-19T01:07:18;19;18;
62054;PMS5003;48653;51.742;-1.256;2023-06-19T01:09:44;22;20;
62054;PMS5003;48653;51.742;-1.256;2023-06-19T01:12:09;22;19;
62054;PMS5003;48653;51.742;-1.256;2023-06-19T01:14:34;19;18;
62054;PMS5003;48653;51.742;-1.256;2023-06-19T01:16:59;22;21;
62054;PMS5003;48653;51.742;-1.256;2023-06-19T01:19:24;22;20;
62054;PMS5003;48653;51.742;-1.256;2023-06-19T01:21:49;20;16;
62054;PMS5003;48653;51.742;-1.256;2023-06-19T01:24:15;18;18;
62054;PMS5003;48653;51.742;-1.256;2023-06-19T01:26:40;24;22;
62054;PMS5003;48653;51.742;-1.256;2023-06-19T01:29:06;25;22;
62054;PMS5003;48653;51.742;-1.256;2023-06-19T01:31:33;26;23;
62054;PMS5003;48653;51.742;-1.256;2023-06-19T01:33:57;21;19;
62054;PMS5003;48653;51.742;-1.256;2023-06-19T01:36:22;21;21;
62054;PMS5003;48653;51.742;-1.256;2023-06-19T01:38:47;22;21;
62054;PMS5003;48653;51.742;-1.256;2023-06-19T01:41:13;20;20;
62054;PMS5003;48653;51.742;-1.256;2023-06-19T01:43:38;27;24;
62054;PMS5003;48653;51.742;-1.256;2023-06-19T01:46:03;20;19;
62054;PMS5003;48653;51.742;-1.256;2023-06-19T01:48:29;25;20;
62054;PMS5003;48653;51.742;-1.256;2023-06-19T01:50:55;22;20;
62054;PMS5003;48653;51.742;-1.256;2023-06-19T01:53:20;23;21;
62054;PMS5003;48653;51.742;-1.256;2023-06-19T01:55:45;19;18;
62054;PMS5003;48653;51.742;-1.256;2023-06-19T01:58:11;19;19;
62054;PMS5003;48653;51.742;-1.256;2023-06-19T02:00:36;25;23;
62054;PMS5003;48653;51.742;-1.256;2023-06-19T02:03:02;20;18;
62054;PMS5003;48653;51.742;-1.256;2023-06-19T02:05:27;22;21;
62054;PMS5003;48653;51.742;-1.256;2023-06-19T02:07:53;21;18;
62054;PMS5003;48653;51.742;-1.256;2023-06-19T02:10:19;23;20;
62054;PMS5003;48653;51.742;-1.256;2023-06-19T02:12:44;23;23;
62054;PMS5003;48653;51.742;-1.256;2023-06-19T02:15:09;21;19;
62054;PMS5003;48653;51.742;-1.256;2023-06-19T02:17:34;21;19;
62054;PMS5003;48653;51.742;-1.256;2023-06-19T02:20:00;19;18;
62054;PMS5003;48653;51.742;-1.256;2023-06-19T02:22:25;23;22;
62054;PMS5003;48653;51.742;-1.256;2023-06-19T02:24:50;21;21;
62054;PMS5003;48653;51.742;-1.256;2023-06-19T02:27:16;27;23;
62054;PMS5003;48653;51.742;-1.256;2023-06-19T02:29:42;22;19;
62054;PMS5003;48653;51.742;-1.256;2023-06-19T02:32:07;23;23;
62054;PMS5003;48653;51.742;-1.256;2023-06-19T02:34:33;24;22;
62054;PMS5003;48653;51.742;-1.256;2023-06-19T02:36:59;19;19;
62054;PMS5003;48653;51.742;-1.256;2023-06-19T02:39:24;21;18;
62054;PMS5003;48653;51.742;-1.256;2023-06-19T02:41:49;19;19;
62054;PMS5003;48653;51.742;-1.256;2023-06-19T02:44:15;21;21;
62054;PMS5003;48653;51.742;-1.256;2023-06-19T02:46:40;18;16;
62054;PMS5003;48653;51.742;-1.256;2023-06-19T02:49:05;21;20;
62054;PMS5003;48653;51.742;-1.256;2023-06-19T02:51:30;22;16;
62054;PMS5003;48653;51.742;-1.256;2023-06-19T02:53:56;21;17;
62054;PMS5003;48653;51.742;-1.256;2023-06-19T02:56:21;29;24;
62054;PMS5003;48653;51.742;-1.256;2023-06-19T02:58:46;19;17;
62054;PMS5003;48653;51.742;-1.256;2023-06-19T03:01:11;18;17;
62054;PMS5003;48653;51.742;-1.256;2023-06-19T03:03:36;23;20;
62054;PMS5003;48653;51.742;-1.256;2023-06-19T03:06:03;22;21;
62054;PMS5003;48653;51.742;-1.256;2023-06-19T03:08:27;21;20;
62054;PMS5003;48653;51.742;-1.256;2023-06-19T03:10:53;23;18;
62054;PMS5003;48653;51.742;-1.256;2023-06-19T03:13:18;24;22;
62054;PMS5003;48653;51.742;-1.256;2023-06-19T03:15:43;22;22;
62054;PMS5003;48653;51.742;-1.256;2023-06-19T03:18:08;20;17;
62054;PMS5003;48653;51.742;-1.256;2023-06-19T03:20:34;21;19;
62054;PMS5003;48653;51.742;-1.256;2023-06-19T03:22:59;24;21;
62054;PMS5003;48653;51.742;-1.256;2023-06-19T03:25:24;20;19;
62054;PMS5003;48653;51.742;-1.256;2023-06-19T03:27:50;20;18;
62054;PMS5003;48653;51.742;-1.256;2023-06-19T03:30:15;20;19;
62054;PMS5003;48653;51.742;-1.256;2023-06-19T03:32:41;26;22;
62054;PMS5003;48653;51.742;-1.256;2023-06-19T03:35:06;21;18;
62054;PMS5003;48653;51.742;-1.256;2023-06-19T03:37:31;26;23;
62054;PMS5003;48653;51.742;-1.256;2023-06-19T03:39:57;23;20;
62054;PMS5003;48653;51.742;-1.256;2023-06-19T03:42:22;19;19;
62054;PMS5003;48653;51.742;-1.256;2023-06-19T03:44:47;28;25;
62054;PMS5003;48653;51.742;-1.256;2023-06-19T03:47:13;25;21;
62054;PMS5003;48653;51.742;-1.256;2023-06-19T03:49:38;22;19;
62054;PMS5003;48653;51.742;-1.256;2023-06-19T03:52:03;20;17;
62054;PMS5003;48653;51.742;-1.256;2023-06-19T03:54:29;20;16;
62054;PMS5003;48653;51.742;-1.256;2023-06-19T03:56:54;27;23;
62054;PMS5003;48653;51.742;-1.256;2023-06-19T03:59:19;22;19;
62054;PMS5003;48653;51.742;-1.256;2023-06-19T04:01:45;22;21;
62054;PMS5003;48653;51.742;-1.256;2023-06-19T04:04:10;18;17;
62054;PMS5003;48653;51.742;-1.256;2023-06-19T04:06:36;17;17;
62054;PMS5003;48653;51.742;-1.256;2023-06-19T04:09:02;27;23;
62054;PMS5003;48653;51.742;-1.256;2023-06-19T04:11:27;20;18;
62054;PMS5003;48653;51.742;-1.256;2023-06-19T04:13:53;23;19;
62054;PMS5003;48653;51.742;-1.256;2023-06-19T04:16:18;24;22;
62054;PMS5003;48653;51.742;-1.256;2023-06-19T04:18:44;23;19;
62054;PMS5003;48653;51.742;-1.256;2023-06-19T04:21:09;20;18;
62054;PMS5003;48653;51.742;-1.256;2023-06-19T04:23:34;18;18;
62054;PMS5003;48653;51.742;-1.256;2023-06-19T04:26:00;21;19;
62054;PMS5003;48653;51.742;-1.256;2023-06-19T04:28:25;20;20;
62054;PMS5003;48653;51.742;-1.256;2023-06-19T04:30:51;20;19;
62054;PMS5003;48653;51.742;-1.256;2023-06-19T04:33:16;20;18;
62054;PMS5003;48653;51.742;-1.256;2023-06-19T04:35:42;19;16;
62054;PMS5003;48653;51.742;-1.256;2023-06-19T04:38:08;24;21;
62054;PMS5003;48653;51.742;-1.256;2023-06-19T04:40:33;23;18;
62054;PMS5003;48653;51.742;-1.256;2023-06-19T04:42:59;22;19;
62054;PMS5003;48653;51.742;-1.256;2023-06-19T04:45:24;19;19;
62054;PMS5003;48653;51.742;-1.256;2023-06-19T04:47:49;21;20;
62054;PMS5003;48653;51.742;-1.256;2023-06-19T04:50:14;19;17;
62054;PMS5003;48653;51.742;-1.256;2023-06-19T04:52:40;22;21;
62054;PMS5003;48653;51.742;-1.256;2023-06-19T04:55:05;20;20;
62054;PMS5003;48653;51.742;-1.256;2023-06-19T04:57:30;19;18;
62054;PMS5003;48653;51.742;-1.256;2023-06-19T04:59:55;26;21;
62054;PMS5003;48653;51.742;-1.256;2023-06-19T05:02:21;26;22;
62054;PMS5003;48653;51.742;-1.256;2023-06-19T05:04:46;20;19;
62054;PMS5003;48653;51.742;-1.256;2023-06-19T05:07:12;18;17;
62054;PMS5003;48653;51.742;-1.256;2023-06-19T05:09:38;24;22;
62054;PMS5003;48653;51.742;-1.256;2023-06-19T05:12:04;25;21;
62054;PMS5003;48653;51.742;-1.256;2023-06-19T05:14:28;26;25;
62054;PMS5003;48653;51.742;-1.256;2023-06-19T05:16:55;26;24;
62054;PMS5003;48653;51.742;-1.256;2023-06-19T05:19:20;21;19;
62054;PMS5003;48653;51.742;-1.256;2023-06-19T05:21:45;20;19;
62054;PMS5003;48653;51.742;-1.256;2023-06-19T05:24:11;21;21;
62054;PMS5003;48653;51.742;-1.256;2023-06-19T05:26:36;24;23;
62054;PMS5003;48653;51.742;-1.256;2023-06-19T05:29:01;20;18;
62054;PMS5003;48653;51.742;-1.256;2023-06-19T05:31:27;22;19;
62054;PMS5003;48653;51.742;-1.256;2023-06-19T05:33:53;22;21;
62054;PMS5003;48653;51.742;-1.256;2023-06-19T05:36:18;21;19;
62054;PMS5003;48653;51.742;-1.256;2023-06-19T05:38:43;24;20;
62054;PMS5003;48653;51.742;-1.256;2023-06-19T05:41:08;22;19;
62054;PMS5003;48653;51.742;-1.256;2023-06-19T05:43:34;21;20;
62054;PMS5003;48653;51.742;-1.256;2023-06-19T05:46:00;25;20;
62054;PMS5003;48653;51.742;-1.256;2023-06-19T05:48:25;21;18;
62054;PMS5003;48653;51.742;-1.256;2023-06-19T05:50:50;20;17;
62054;PMS5003;48653;51.742;-1.256;2023-06-19T05:53:16;19;17;
62054;PMS5003;48653;51.742;-1.256;2023-06-19T05:55:41;19;16;
62054;PMS5003;48653;51.742;-1.256;2023-06-19T05:58:07;18;18;
62054;PMS5003;48653;51.742;-1.256;2023-06-19T06:00:32;25;22;
62054;PMS5003;48653;51.742;-1.256;2023-06-19T06:02:58;21;19;
62054;PMS5003;48653;51.742;-1.256;2023-06-19T06:05:23;17;15;
62054;PMS5003;48653;51.742;-1.256;2023-06-19T06:07:48;20;17;
62054;PMS5003;48653;51.742;-1.256;2023-06-19T06:10:14;21;17;
62054;PMS5003;48653;51.742;-1.256;2023-06-19T06:12:39;26;24;
62054;PMS5003;48653;51.742;-1.256;2023-06-19T06:15:05;17;17;
62054;PMS5003;48653;51.742;-1.256;2023-06-19T06:17:30;22;19;
62054;PMS5003;48653;51.742;-1.256;2023-06-19T06:19:55;18;17;
62054;PMS5003;48653;51.742;-1.256;2023-06-19T06:22:20;21;20;
62054;PMS5003;48653;51.742;-1.256;2023-06-19T06:24:45;19;18;
62054;PMS5003;48653;51.742;-1.256;2023-06-19T06:27:11;15;15;
62054;PMS5003;48653;51.742;-1.256;2023-06-19T06:29:36;21;21;
62054;PMS5003;48653;51.742;-1.256;2023-06-19T06:32:03;19;16;
62054;PMS5003;48653;51.742;-1.256;2023-06-19T06:34:27;21;17;
62054;PMS5003;48653;51.742;-1.256;2023-06-19T06:36:52;24;21;
62054;PMS5003;48653;51.742;-1.256;2023-06-19T06:39:18;17;16;
62054;PMS5003;48653;51.742;-1.256;2023-06-19T06:41:44;19;17;
62054;PMS5003;48653;51.742;-1.256;2023-06-19T06:44:08;19;17;
62054;PMS5003;48653;51.742;-1.256;2023-06-19T06:46:34;27;25;
62054;PMS5003;48653;51.742;-1.256;2023-06-19T06:48:59;18;17;
62054;PMS5003;48653;51.742;-1.256;2023-06-19T06:51:25;18;17;
62054;PMS5003;48653;51.742;-1.256;2023-06-19T06:53:50;19;17;
62054;PMS5003;48653;51.742;-1.256;2023-06-19T06:56:15;22;19;
62054;PMS5003;48653;51.742;-1.256;2023-06-19T06:58:40;19;19;
62054;PMS5003;48653;51.742;-1.256;2023-06-19T07:01:05;18;17;
62054;PMS5003;48653;51.742;-1.256;2023-06-19T07:03:31;18;15;
62054;PMS5003;48653;51.742;-1.256;2023-06-19T07:05:57;18;18;
62054;PMS5003;48653;51.742;-1.256;2023-06-19T07:08:22;18;18;
62054;PMS5003;48653;51.742;-1.256;2023-06-19T07:10:47;15;15;
62054;PMS5003;48653;51.742;-1.256;2023-06-19T07:13:13;17;17;
62054;PMS5003;48653;51.742;-1.256;2023-06-19T07:15:38;19;16;
62054;PMS5003;48653;51.742;-1.256;2023-06-19T07:18:03;17;16;
62054;PMS5003;48653;51.742;-1.256;2023-06-19T07:20:29;17;17;
62054;PMS5003;48653;51.742;-1.256;2023-06-19T07:22:55;16;16;
62054;PMS5003;48653;51.742;-1.256;2023-06-19T07:25:21;18;18;
62054;PMS5003;48653;51.742;-1.256;2023-06-19T07:27:46;21;21;
62054;PMS5003;48653;51.742;-1.256;2023-06-19T07:30:12;18;14;
62054;PMS5003;48653;51.742;-1.256;2023-06-19T07:32:37;19;18;
62054;PMS5003;48653;51.742;-1.256;2023-06-19T07:35:03;17;14;
62054;PMS5003;48653;51.742;-1.256;2023-06-19T07:37:29;14;14;
62054;PMS5003;48653;51.742;-1.256;2023-06-19T07:39:54;19;18;
62054;PMS5003;48653;51.742;-1.256;2023-06-19T07:42:19;24;17;
62054;PMS5003;48653;51.742;-1.256;2023-06-19T07:44:45;19;17;
62054;PMS5003;48653;51.742;-1.256;2023-06-19T07:47:10;16;14;
62054;PMS5003;48653;51.742;-1.256;2023-06-19T07:49:36;18;14;
62054;PMS5003;48653;51.742;-1.256;2023-06-19T07:52:01;17;16;
62054;PMS5003;48653;51.742;-1.256;2023-06-19T07:54:27;15;13;
62054;PMS5003;48653;51.742;-1.256;2023-06-19T07:56:52;23;20;
62054;PMS5003;48653;51.742;-1.256;2023-06-19T07:59:19;13;12;
62054;PMS5003;48653;51.742;-1.256;2023-06-19T08:01:44;11;11;
62054;PMS5003;48653;51.742;-1.256;2023-06-19T08:04:09;11;9;
62054;PMS5003;48653;51.742;-1.256;2023-06-19T08:06:34;16;14;
62054;PMS5003;48653;51.742;-1.256;2023-06-19T08:08:59;14;14;
62054;PMS5003;48653;51.742;-1.256;2023-06-19T08:11:24;11;11;
62054;PMS5003;48653;51.742;-1.256;2023-06-19T08:13:50;10;10;
62054;PMS5003;48653;51.742;-1.256;2023-06-19T08:16:15;14;12;
62054;PMS5003;48653;51.742;-1.256;2023-06-19T08:18:40;17;14;
62054;PMS5003;48653;51.742;-1.256;2023-06-19T08:21:06;14;13;
62054;PMS5003;48653;51.742;-1.256;2023-06-19T08:23:32;15;14;
62054;PMS5003;48653;51.742;-1.256;2023-06-19T08:25:57;18;15;
62054;PMS5003;48653;51.742;-1.256;2023-06-19T08:28:22;15;14;
62054;PMS5003;48653;51.742;-1.256;2023-06-19T08:30:47;14;12;
62054;PMS5003;48653;51.742;-1.256;2023-06-19T08:33:13;15;11;
62054;PMS5003;48653;51.742;-1.256;2023-06-19T08:35:37;14;13;
62054;PMS5003;48653;51.742;-1.256;2023-06-19T08:38:03;14;14;
62054;PMS5003;48653;51.742;-1.256;2023-06-19T08:40:28;9;9;
62054;PMS5003;48653;51.742;-1.256;2023-06-19T08:42:53;18;15;
62054;PMS5003;48653;51.742;-1.256;2023-06-19T08:45:19;14;11;
62054;PMS5003;48653;51.742;-1.256;2023-06-19T08:47:43;14;12;
62054;PMS5003;48653;51.742;-1.256;2023-06-19T08:50:09;20;17;
62054;PMS5003;48653;51.742;-1.256;2023-06-19T08:52:34;17;13;
62054;PMS5003;48653;51.742;-1.256;2023-06-19T08:54:59;13;13;
62054;PMS5003;48653;51.742;-1.256;2023-06-19T08:59:50;13;12;
62054;PMS5003;48653;51.742;-1.256;2023-06-19T09:02:15;13;11;
62054;PMS5003;48653;51.742;-1.256;2023-06-19T09:04:40;13;13;
62054;PMS5003;48653;51.742;-1.256;2023-06-19T09:07:07;11;10;
62054;PMS5003;48653;51.742;-1.256;2023-06-19T09:09:31;10;10;
62054;PMS5003;48653;51.742;-1.256;2023-06-19T09:11:57;11;10;
62054;PMS5003;48653;51.742;-1.256;2023-06-19T09:14:23;10;10;
62054;PMS5003;48653;51.742;-1.256;2023-06-19T09:16:46;10;9;
62054;PMS5003;48653;51.742;-1.256;2023-06-19T09:19:11;10;10;
62054;PMS5003;48653;51.742;-1.256;2023-06-19T09:21:37;12;12;
62054;PMS5003;48653;51.742;-1.256;2023-06-19T09:24:03;11;10;
62054;PMS5003;48653;51.742;-1.256;2023-06-19T09:26:28;16;11;
62054;PMS5003;48653;51.742;-1.256;2023-06-19T09:28:53;16;10;
62054;PMS5003;48653;51.742;-1.256;2023-06-19T09:31:18;11;10;
62054;PMS5003;48653;51.742;-1.256;2023-06-19T09:33:44;12;11;
62054;PMS5003;48653;51.742;-1.256;2023-06-19T09:36:09;8;6;
62054;PMS5003;48653;51.742;-1.256;2023-06-19T09:38:35;11;10;
62054;PMS5003;48653;51.742;-1.256;2023-06-19T09:41:00;11;9;
62054;PMS5003;48653;51.742;-1.256;2023-06-19T09:43:30;9;9;
62054;PMS5003;48653;51.742;-1.256;2023-06-19T09:45:52;13;10;
62054;PMS5003;48653;51.742;-1.256;2023-06-19T09:48:18;8;7;
62054;PMS5003;48653;51.742;-1.256;2023-06-19T09:50:41;10;10;
62054;PMS5003;48653;51.742;-1.256;2023-06-19T09:53:06;13;10;
62054;PMS5003;48653;51.742;-1.256;2023-06-19T09:55:31;8;8;
62054;PMS5003;48653;51.742;-1.256;2023-06-19T09:57:56;9;9;
62054;PMS5003;48653;51.742;-1.256;2023-06-19T10:00:21;10;9;
62054;PMS5003;48653;51.742;-1.256;2023-06-19T10:02:47;10;10;
62054;PMS5003;48653;51.742;-1.256;2023-06-19T10:05:13;7;7;
62054;PMS5003;48653;51.742;-1.256;2023-06-19T10:07:38;8;8;
62054;PMS5003;48653;51.742;-1.256;2023-06-19T10:10:03;6;6;
62054;PMS5003;48653;51.742;-1.256;2023-06-19T10:12:33;6;6;
62054;PMS5003;48653;51.742;-1.256;2023-06-19T10:14:53;8;8;
62054;PMS5003;48653;51.742;-1.256;2023-06-19T10:17:18;6;6;
62054;PMS5003;48653;51.742;-1.256;2023-06-19T10:22:18;8;7;
62054;PMS5003;48653;51.742;-1.256;2023-06-19T10:24:34;8;8;
62054;PMS5003;48653;51.742;-1.256;2023-06-19T10:27:00;9;7;
62054;PMS5003;48653;51.742;-1.256;2023-06-19T10:29:25;8;8;
62054;PMS5003;48653;51.742;-1.256;2023-06-19T10:31:49;6;6;
62054;PMS5003;48653;51.742;-1.256;2023-06-19T10:34:14;7;7;
62054;PMS5003;48653;51.742;-1.256;2023-06-19T10:36:39;6;6;
62054;PMS5003;48653;51.742;-1.256;2023-06-19T10:39:05;8;7;
62054;PMS5003;48653;51.742;-1.256;2023-06-19T10:41:30;7;7;
62054;PMS5003;48653;51.742;-1.256;2023-06-19T10:43:56;7;7;
62054;PMS5003;48653;51.742;-1.256;2023-06-19T10:46:21;7;6;
62054;PMS5003;48653;51.742;-1.256;2023-06-19T10:48:46;10;10;
62054;PMS5003;48653;51.742;-1.256;2023-06-19T10:51:11;3;3;
62054;PMS5003;48653;51.742;-1.256;2023-06-19T10:53:37;4;4;
62054;PMS5003;48653;51.742;-1.256;2023-06-19T10:56:02;7;6;
62054;PMS5003;48653;51.742;-1.256;2023-06-19T10:58:27;5;5;
62054;PMS5003;48653;51.742;-1.256;2023-06-19T11:00:52;8;8;
62054;PMS5003;48653;51.742;-1.256;2023-06-19T11:03:17;4;4;
62054;PMS5003;48653;51.742;-1.256;2023-06-19T11:05:43;5;5;
62054;PMS5003;48653;51.742;-1.256;2023-06-19T11:08:07;6;6;
62054;PMS5003;48653;51.742;-1.256;2023-06-19T11:10:32;8;5;
62054;PMS5003;48653;51.742;-1.256;2023-06-19T11:12:58;5;3;
62054;PMS5003;48653;51.742;-1.256;2023-06-19T11:15:28;7;6;
62054;PMS5003;48653;51.742;-1.256;2023-06-19T11:17:48;5;5;
62054;PMS5003;48653;51.742;-1.256;2023-06-19T11:20:13;4;3;
62054;PMS5003;48653;51.742;-1.256;2023-06-19T11:22:38;3;3;
62054;PMS5003;48653;51.742;-1.256;2023-06-19T11:25:04;2;2;
62054;PMS5003;48653;51.742;-1.256;2023-06-19T11:27:30;3;3;
62054;PMS5003;48653;51.742;-1.256;2023-06-19T11:29:55;5;4;
62054;PMS5003;48653;51.742;-1.256;2023-06-19T11:32:19;6;5;
62054;PMS5003;48653;51.742;-1.256;2023-06-19T11:34:44;7;4;
62054;PMS5003;48653;51.742;-1.256;2023-06-19T11:37:12;3;3;
62054;PMS5003;48653;51.742;-1.256;2023-06-19T11:39:34;4;4;
62054;PMS5003;48653;51.742;-1.256;2023-06-19T11:41:59;4;4;
62054;PMS5003;48653;51.742;-1.256;2023-06-19T11:44:24;6;5;
62054;PMS5003;48653;51.742;-1.256;2023-06-19T11:46:49;4;4;
62054;PMS5003;48653;51.742;-1.256;2023-06-19T11:49:15;4;2;
62054;PMS5003;48653;51.742;-1.256;2023-06-19T11:51:39;2;2;
62054;PMS5003;48653;51.742;-1.256;2023-06-19T11:54:05;4;4;
62054;PMS5003;48653;51.742;-1.256;2023-06-19T11:56:29;5;4;
62054;PMS5003;48653;51.742;-1.256;2023-06-19T11:58:54;4;4;
62054;PMS5003;48653;51.742;-1.256;2023-06-19T12:01:19;5;5;
62054;PMS5003;48653;51.742;-1.256;2023-06-19T12:03:44;6;5;
62054;PMS5003;48653;51.742;-1.256;2023-06-19T12:06:10;4;4;
62054;PMS5003;48653;51.742;-1.256;2023-06-19T12:08:36;5;4;
62054;PMS5003;48653;51.742;-1.256;2023-06-19T12:11:01;5;5;
62054;PMS5003;48653;51.742;-1.256;2023-06-19T12:13:26;5;4;
62054;PMS5003;48653;51.742;-1.256;2023-06-19T12:15:51;5;3;
62054;PMS5003;48653;51.742;-1.256;2023-06-19T12:18:16;5;5;
62054;PMS5003;48653;51.742;-1.256;2023-06-19T12:20:41;5;5;
62054;PMS5003;48653;51.742;-1.256;2023-06-19T12:23:06;5;3;
62054;PMS5003;48653;51.742;-1.256;2023-06-19T12:25:32;7;7;
62054;PMS5003;48653;51.742;-1.256;2023-06-19T12:27:58;6;6;
62054;PMS5003;48653;51.742;-1.256;2023-06-19T12:30:22;5;5;
62054;PMS5003;48653;51.742;-1.256;2023-06-19T12:32:47;3;3;
62054;PMS5003;48653;51.742;-1.256;2023-06-19T12:35:13;6;5;
62054;PMS5003;48653;51.742;-1.256;2023-06-19T12:37:38;4;4;
62054;PMS5003;48653;51.742;-1.256;2023-06-19T12:40:03;3;3;
62054;PMS5003;48653;51.742;-1.256;2023-06-19T12:42:28;6;4;
62054;PMS5003;48653;51.742;-1.256;2023-06-19T12:44:53;2;2;
62054;PMS5003;48653;51.742;-1.256;2023-06-19T12:47:18;4;4;
62054;PMS5003;48653;51.742;-1.256;2023-06-19T12:49:43;4;4;
62054;PMS5003;48653;51.742;-1.256;2023-06-19T12:52:08;6;5;
62054;PMS5003;48653;51.742;-1.256;2023-06-19T12:54:33;5;5;
62054;PMS5003;48653;51.742;-1.256;2023-06-19T12:56:58;8;6;
62054;PMS5003;48653;51.742;-1.256;2023-06-19T12:59:24;5;5;
62054;PMS5003;48653;51.742;-1.256;2023-06-19T13:01:48;6;5;
62054;PMS5003;48653;51.742;-1.256;2023-06-19T13:04:14;4;4;
62054;PMS5003;48653;51.742;-1.256;2023-06-19T13:06:39;7;6;
62054;PMS5003;48653;51.742;-1.256;2023-06-19T13:09:04;6;6;
62054;PMS5003;48653;51.742;-1.256;2023-06-19T13:11:29;5;4;
62054;PMS5003;48653;51.742;-1.256;2023-06-19T13:13:54;6;6;
62054;PMS5003;48653;51.742;-1.256;2023-06-19T13:16:19;6;6;
62054;PMS5003;48653;51.742;-1.256;2023-06-19T13:18:44;5;5;
62054;PMS5003;48653;51.742;-1.256;2023-06-19T13:21:09;6;6;
62054;PMS5003;48653;51.742;-1.256;2023-06-19T13:23:34;7;6;
62054;PMS5003;48653;51.742;-1.256;2023-06-19T13:25:59;5;5;
62054;PMS5003;48653;51.742;-1.256;2023-06-19T13:28:24;7;6;
62054;PMS5003;48653;51.742;-1.256;2023-06-19T13:30:49;6;5;
62054;PMS5003;48653;51.742;-1.256;2023-06-19T13:33:14;5;4;
62054;PMS5003;48653;51.742;-1.256;2023-06-19T13:35:39;4;4;
62054;PMS5003;48653;51.742;-1.256;2023-06-19T13:38:04;5;4;
62054;PMS5003;48653;51.742;-1.256;2023-06-19T13:40:29;5;3;
62054;PMS5003;48653;51.742;-1.256;2023-06-19T13:42:55;6;5;
62054;PMS5003;48653;51.742;-1.256;2023-06-19T13:45:20;2;2;
62054;PMS5003;48653;51.742;-1.256;2023-06-19T13:47:45;3;3;
62054;PMS5003;48653;51.742;-1.256;2023-06-19T13:50:10;5;5;
62054;PMS5003;48653;51.742;-1.256;2023-06-19T13:52:35;5;5;
62054;PMS5003;48653;51.742;-1.256;2023-06-19T13:55:01;5;5;
62054;PMS5003;48653;51.742;-1.256;2023-06-19T13:57:26;4;4;
62054;PMS5003;48653;51.742;-1.256;2023-06-19T13:59:51;6;5;
62054;PMS5003;48653;51.742;-1.256;2023-06-19T14:02:16;3;3;
62054;PMS5003;48653;51.742;-1.256;2023-06-19T14:04:41;3;3;
62054;PMS5003;48653;51.742;-1.256;2023-06-19T14:07:06;5;4;
62054;PMS5003;48653;51.742;-1.256;2023-06-19T14:09:31;7;3;
62054;PMS5003;48653;51.742;-1.256;2023-06-19T14:11:56;2;2;
62054;PMS5003;48653;51.742;-1.256;2023-06-19T14:14:21;4;4;
62054;PMS5003;48653;51.742;-1.256;2023-06-19T14:16:46;2;2;
62054;PMS5003;48653;51.742;-1.256;2023-06-19T14:19:11;4;4;
62054;PMS5003;48653;51.742;-1.256;2023-06-19T14:21:36;4;4;
62054;PMS5003;48653;51.742;-1.256;2023-06-19T14:24:02;10;8;
62054;PMS5003;48653;51.742;-1.256;2023-06-19T14:26:27;3;3;
62054;PMS5003;48653;51.742;-1.256;2023-06-19T14:28:52;4;3;
62054;PMS5003;48653;51.742;-1.256;2023-06-19T14:31:18;3;3;
62054;PMS5003;48653;51.742;-1.256;2023-06-19T14:33:43;3;3;
62054;PMS5003;48653;51.742;-1.256;2023-06-19T14:36:08;2;2;
62054;PMS5003;48653;51.742;-1.256;2023-06-19T14:38:33;5;3;
62054;PMS5003;48653;51.742;-1.256;2023-06-19T14:40:58;2;2;
62054;PMS5003;48653;51.742;-1.256;2023-06-19T14:43:23;6;3;
62054;PMS5003;48653;51.742;-1.256;2023-06-19T14:45:48;3;3;
62054;PMS5003;48653;51.742;-1.256;2023-06-19T14:48:13;5;4;
62054;PMS5003;48653;51.742;-1.256;2023-06-19T14:50:38;5;4;
62054;PMS5003;48653;51.742;-1.256;2023-06-19T14:53:03;4;3;
62054;PMS5003;48653;51.742;-1.256;2023-06-19T14:55:28;5;2;
62054;PMS5003;48653;51.742;-1.256;2023-06-19T14:57:54;4;4;
62054;PMS5003;48653;51.742;-1.256;2023-06-19T15:00:19;4;3;
62054;PMS5003;48653;51.742;-1.256;2023-06-19T15:02:44;1;1;
62054;PMS5003;48653;51.742;-1.256;2023-06-19T15:05:09;3;3;
62054;PMS5003;48653;51.742;-1.256;2023-06-19T15:07:34;4;4;
62054;PMS5003;48653;51.742;-1.256;2023-06-19T15:09:59;4;3;
62054;PMS5003;48653;51.742;-1.256;2023-06-19T15:12:24;4;3;
62054;PMS5003;48653;51.742;-1.256;2023-06-19T15:14:49;3;2;
62054;PMS5003;48653;51.742;-1.256;2023-06-19T15:17:14;3;3;
62054;PMS5003;48653;51.742;-1.256;2023-06-19T15:19:39;4;4;
62054;PMS5003;48653;51.742;-1.256;2023-06-19T15:22:05;3;3;
62054;PMS5003;48653;51.742;-1.256;2023-06-19T15:24:29;4;3;
62054;PMS5003;48653;51.742;-1.256;2023-06-19T15:26:55;7;3;
62054;PMS5003;48653;51.742;-1.256;2023-06-19T15:29:20;2;2;
62054;PMS5003;48653;51.742;-1.256;2023-06-19T15:31:45;3;2;
62054;PMS5003;48653;51.742;-1.256;2023-06-19T15:34:10;2;2;
62054;PMS5003;48653;51.742;-1.256;2023-06-19T15:36:35;7;3;
62054;PMS5003;48653;51.742;-1.256;2023-06-19T15:39:00;2;2;
62054;PMS5003;48653;51.742;-1.256;2023-06-19T15:41:25;3;3;
62054;PMS5003;48653;51.742;-1.256;2023-06-19T15:43:50;3;3;
62054;PMS5003;48653;51.742;-1.256;2023-06-19T15:46:15;5;3;
62054;PMS5003;48653;51.742;-1.256;2023-06-19T15:48:40;3;3;
62054;PMS5003;48653;51.742;-1.256;2023-06-19T15:51:05;5;3;
62054;PMS5003;48653;51.742;-1.256;2023-06-19T15:53:31;5;3;
62054;PMS5003;48653;51.742;-1.256;2023-06-19T15:55:56;2;2;
62054;PMS5003;48653;51.742;-1.256;2023-06-19T15:58:21;2;2;
62054;PMS5003;48653;51.742;-1.256;2023-06-19T16:00:46;2;2;
62054;PMS5003;48653;51.742;-1.256;2023-06-19T16:03:11;3;3;
62054;PMS5003;48653;51.742;-1.256;2023-06-19T16:05:36;3;3;